TAP17 GMMN-LPPR
Flight info
| Callsign | TAP17 |
|---|---|
| Flight time | 1h 15m |
| Altitude | 36000 |
| Route | LAKAM UR722 AMSEL DCT ABLEG |
| Aircraft | A321/M-SDE3FGHIRWY/LB1 |
Departure
| Time | 2026-05-07 17:56 |
|---|---|
| Airport | Mohammed V International Airport (GMMN) |
Arrival
| Time | 2026-05-07 19:12 |
|---|---|
| Airport | Francisco de Sá Carneiro Airport (LPPR) |
| Time | Latitude | Longitude | Altitude | Speed | Heading |
|---|---|---|---|---|---|
| 2026-05-07 16:46 | 33.37605 | -7.58337 | 648 ft | 0 kts | 94° |
| 2026-05-07 16:46 | 33.37541 | -7.58342 | 649 ft | 0 kts | 69° |
| 2026-05-07 16:48 | 33.37541 | -7.58343 | 648 ft | 0 kts | 69° |
| 2026-05-07 17:02 | 33.37541 | -7.58344 | 648 ft | 0 kts | 69° |
| 2026-05-07 17:16 | 33.37536 | -7.58359 | 648 ft | 4 kts | 64° |
| 2026-05-07 17:16 | 33.37522 | -7.58386 | 652 ft | 4 kts | 46° |
| 2026-05-07 17:16 | 33.37502 | -7.58402 | 649 ft | 4 kts | 4° |
| 2026-05-07 17:17 | 33.37491 | -7.58402 | 648 ft | 2 kts | 343° |
| 2026-05-07 17:20 | 33.37493 | -7.58403 | 648 ft | 1 kts | 343° |
| 2026-05-07 17:20 | 33.37517 | -7.58412 | 649 ft | 5 kts | 342° |
| 2026-05-07 17:21 | 33.37548 | -7.58423 | 650 ft | 5 kts | 343° |
| 2026-05-07 17:21 | 33.37579 | -7.58432 | 648 ft | 5 kts | 347° |
| 2026-05-07 17:21 | 33.37613 | -7.58438 | 648 ft | 5 kts | 355° |
| 2026-05-07 17:21 | 33.37673 | -7.58448 | 648 ft | 13 kts | 346° |
| 2026-05-07 17:22 | 33.37771 | -7.58482 | 647 ft | 15 kts | 338° |
| 2026-05-07 17:22 | 33.37848 | -7.58560 | 647 ft | 14 kts | 308° |
| 2026-05-07 17:22 | 33.37904 | -7.58658 | 647 ft | 14 kts | 294° |
| 2026-05-07 17:22 | 33.37898 | -7.58759 | 646 ft | 9 kts | 252° |
| 2026-05-07 17:23 | 33.37860 | -7.58802 | 647 ft | 7 kts | 190° |
| 2026-05-07 17:23 | 33.37814 | -7.58795 | 647 ft | 6 kts | 167° |
| 2026-05-07 17:23 | 33.37774 | -7.58780 | 650 ft | 7 kts | 162° |
| 2026-05-07 17:23 | 33.37692 | -7.58752 | 648 ft | 15 kts | 165° |
| 2026-05-07 17:24 | 33.37599 | -7.58719 | 647 ft | 13 kts | 163° |
| 2026-05-07 17:24 | 33.37517 | -7.58691 | 648 ft | 11 kts | 163° |
| 2026-05-07 17:24 | 33.37447 | -7.58666 | 648 ft | 10 kts | 164° |
| 2026-05-07 17:24 | 33.37384 | -7.58646 | 648 ft | 9 kts | 164° |
| 2026-05-07 17:25 | 33.37331 | -7.58628 | 648 ft | 7 kts | 163° |
| 2026-05-07 17:25 | 33.37285 | -7.58612 | 649 ft | 6 kts | 163° |
| 2026-05-07 17:25 | 33.37243 | -7.58597 | 649 ft | 7 kts | 164° |
| 2026-05-07 17:25 | 33.37190 | -7.58579 | 649 ft | 9 kts | 164° |
| 2026-05-07 17:26 | 33.37136 | -7.58561 | 649 ft | 7 kts | 164° |
| 2026-05-07 17:26 | 33.37089 | -7.58546 | 650 ft | 7 kts | 164° |
| 2026-05-07 17:26 | 33.37046 | -7.58531 | 650 ft | 6 kts | 164° |
| 2026-05-07 17:26 | 33.37009 | -7.58519 | 650 ft | 5 kts | 164° |
| 2026-05-07 17:27 | 33.36951 | -7.58498 | 650 ft | 14 kts | 163° |
| 2026-05-07 17:27 | 33.36839 | -7.58459 | 651 ft | 18 kts | 164° |
| 2026-05-07 17:27 | 33.36728 | -7.58421 | 651 ft | 16 kts | 164° |
| 2026-05-07 17:27 | 33.36629 | -7.58387 | 653 ft | 14 kts | 163° |
| 2026-05-07 17:28 | 33.36538 | -7.58356 | 652 ft | 16 kts | 163° |
| 2026-05-07 17:28 | 33.36416 | -7.58313 | 652 ft | 18 kts | 164° |
| 2026-05-07 17:28 | 33.36302 | -7.58275 | 653 ft | 16 kts | 164° |
| 2026-05-07 17:28 | 33.36196 | -7.58239 | 653 ft | 18 kts | 164° |
| 2026-05-07 17:29 | 33.36074 | -7.58197 | 654 ft | 17 kts | 164° |
| 2026-05-07 17:29 | 33.35964 | -7.58160 | 654 ft | 16 kts | 164° |
| 2026-05-07 17:29 | 33.35865 | -7.58126 | 655 ft | 14 kts | 164° |
| 2026-05-07 17:29 | 33.35780 | -7.58097 | 655 ft | 12 kts | 164° |
| 2026-05-07 17:30 | 33.35705 | -7.58071 | 655 ft | 11 kts | 164° |
| 2026-05-07 17:30 | 33.35640 | -7.58048 | 658 ft | 9 kts | 164° |
| 2026-05-07 17:30 | 33.35583 | -7.58030 | 656 ft | 8 kts | 165° |
| 2026-05-07 17:30 | 33.35563 | -7.58023 | 658 ft | 0 kts | 165° |
| 2026-05-07 17:37 | 33.35533 | -7.58013 | 658 ft | 6 kts | 163° |
| 2026-05-07 17:37 | 33.35495 | -7.57999 | 656 ft | 4 kts | 163° |
| 2026-05-07 17:37 | 33.35489 | -7.57997 | 656 ft | 0 kts | 163° |
| 2026-05-07 17:41 | 33.35460 | -7.57987 | 656 ft | 6 kts | 163° |
| 2026-05-07 17:41 | 33.35420 | -7.57973 | 657 ft | 6 kts | 163° |
| 2026-05-07 17:42 | 33.35381 | -7.57959 | 657 ft | 5 kts | 165° |
| 2026-05-07 17:42 | 33.35375 | -7.57957 | 657 ft | 0 kts | 164° |
| 2026-05-07 17:44 | 33.35374 | -7.57957 | 657 ft | 1 kts | 164° |
| 2026-05-07 17:44 | 33.35331 | -7.57947 | 657 ft | 8 kts | 176° |
| 2026-05-07 17:44 | 33.35306 | -7.57950 | 657 ft | 0 kts | 193° |
| 2026-05-07 17:49 | 33.35280 | -7.57965 | 657 ft | 6 kts | 214° |
| 2026-05-07 17:49 | 33.35267 | -7.57982 | 657 ft | 0 kts | 233° |
| 2026-05-07 17:49 | 33.35261 | -7.57994 | 657 ft | 0 kts | 239° |
| 2026-05-07 17:51 | 33.35255 | -7.58008 | 657 ft | 4 kts | 244° |
| 2026-05-07 17:51 | 33.35246 | -7.58040 | 657 ft | 4 kts | 252° |
| 2026-05-07 17:52 | 33.35240 | -7.58063 | 657 ft | 2 kts | 253° |
| 2026-05-07 17:53 | 33.35239 | -7.58066 | 657 ft | 3 kts | 253° |
| 2026-05-07 17:53 | 33.35230 | -7.58102 | 657 ft | 4 kts | 253° |
| 2026-05-07 17:54 | 33.35217 | -7.58154 | 657 ft | 8 kts | 256° |
| 2026-05-07 17:54 | 33.35215 | -7.58216 | 658 ft | 6 kts | 278° |
| 2026-05-07 17:54 | 33.35237 | -7.58260 | 659 ft | 7 kts | 317° |
| 2026-05-07 17:54 | 33.35268 | -7.58278 | 659 ft | 0 kts | 341° |
| 2026-05-07 17:55 | 33.35284 | -7.58285 | 659 ft | 13 kts | 342° |
| 2026-05-07 17:56 | 33.35615 | -7.58398 | 655 ft | 83 kts | 344° |
| 2026-05-07 17:56 | 33.36347 | -7.58644 | 657 ft | 133 kts | 344° |
| 2026-05-07 17:56 | 33.37369 | -7.58998 | 704 ft | 167 kts | 344° |
| 2026-05-07 17:56 | 33.38468 | -7.59380 | 1305 ft | 164 kts | 347° |
| 2026-05-07 17:57 | 33.39568 | -7.59739 | 1862 ft | 165 kts | 346° |
| 2026-05-07 17:57 | 33.40734 | -7.60139 | 2082 ft | 185 kts | 343° |
| 2026-05-07 17:57 | 33.41950 | -7.60861 | 2214 ft | 211 kts | 330° |
| 2026-05-07 17:57 | 33.43107 | -7.62082 | 2549 ft | 232 kts | 313° |
| 2026-05-07 17:58 | 33.44023 | -7.63670 | 3426 ft | 231 kts | 306° |
| 2026-05-07 17:58 | 33.44990 | -7.65236 | 4019 ft | 243 kts | 317° |
| 2026-05-07 17:58 | 33.46517 | -7.66220 | 4519 ft | 259 kts | 346° |
| 2026-05-07 17:58 | 33.48339 | -7.66471 | 5146 ft | 269 kts | 353° |
| 2026-05-07 17:59 | 33.50235 | -7.66665 | 5836 ft | 276 kts | 353° |
| 2026-05-07 17:59 | 33.52171 | -7.66860 | 6488 ft | 284 kts | 353° |
| 2026-05-07 17:59 | 33.54163 | -7.67063 | 7127 ft | 290 kts | 353° |
| 2026-05-07 17:59 | 33.56188 | -7.67271 | 7832 ft | 293 kts | 353° |
| 2026-05-07 18:00 | 33.58208 | -7.67478 | 8503 ft | 298 kts | 353° |
| 2026-05-07 18:00 | 33.60290 | -7.67692 | 9157 ft | 303 kts | 352° |
| 2026-05-07 18:00 | 33.62403 | -7.67912 | 9811 ft | 308 kts | 352° |
| 2026-05-07 18:00 | 33.64580 | -7.68142 | 10188 ft | 323 kts | 352° |
| 2026-05-07 18:01 | 33.66886 | -7.68389 | 10319 ft | 344 kts | 352° |
| 2026-05-07 18:01 | 33.69331 | -7.68648 | 10601 ft | 358 kts | 352° |
| 2026-05-07 18:01 | 33.71834 | -7.68908 | 11132 ft | 363 kts | 352° |
| 2026-05-07 18:01 | 33.74356 | -7.69169 | 11741 ft | 366 kts | 352° |
| 2026-05-07 18:02 | 33.79494 | -7.69707 | 12961 ft | 373 kts | 352° |
| 2026-05-07 18:02 | 33.82097 | -7.69982 | 13553 ft | 377 kts | 352° |
| 2026-05-07 18:02 | 33.84722 | -7.70260 | 14076 ft | 381 kts | 352° |
| 2026-05-07 18:03 | 33.87339 | -7.70534 | 14613 ft | 384 kts | 351° |
| 2026-05-07 18:03 | 33.90007 | -7.70813 | 14877 ft | 385 kts | 351° |
| 2026-05-07 18:03 | 33.92678 | -7.71092 | 14946 ft | 385 kts | 351° |
| 2026-05-07 18:03 | 33.95340 | -7.71369 | 14954 ft | 385 kts | 351° |
| 2026-05-07 18:04 | 33.98006 | -7.71648 | 14975 ft | 385 kts | 351° |
| 2026-05-07 18:04 | 34.00672 | -7.71929 | 14954 ft | 384 kts | 351° |
| 2026-05-07 18:04 | 34.03334 | -7.72209 | 14956 ft | 384 kts | 352° |
| 2026-05-07 18:04 | 34.05996 | -7.72488 | 14956 ft | 384 kts | 352° |
| 2026-05-07 18:05 | 34.08658 | -7.72767 | 14960 ft | 384 kts | 352° |
| 2026-05-07 18:05 | 34.11317 | -7.73047 | 14959 ft | 384 kts | 352° |
| 2026-05-07 18:05 | 34.13979 | -7.73327 | 14959 ft | 384 kts | 352° |
| 2026-05-07 18:05 | 34.16644 | -7.73608 | 14961 ft | 384 kts | 351° |
| 2026-05-07 18:06 | 34.19272 | -7.73886 | 14959 ft | 384 kts | 352° |
| 2026-05-07 18:06 | 34.21933 | -7.74124 | 14958 ft | 384 kts | 353° |
| 2026-05-07 18:06 | 34.24605 | -7.74317 | 14962 ft | 385 kts | 353° |
| 2026-05-07 18:06 | 34.27283 | -7.74484 | 14958 ft | 385 kts | 354° |
| 2026-05-07 18:07 | 34.29948 | -7.74647 | 14960 ft | 384 kts | 354° |
| 2026-05-07 18:07 | 34.32623 | -7.74813 | 14961 ft | 384 kts | 354° |
| 2026-05-07 18:07 | 34.35306 | -7.74988 | 15208 ft | 388 kts | 353° |
| 2026-05-07 18:07 | 34.38005 | -7.75171 | 15793 ft | 389 kts | 353° |
| 2026-05-07 18:08 | 34.40714 | -7.75354 | 16344 ft | 392 kts | 353° |
| 2026-05-07 18:08 | 34.43407 | -7.75536 | 16862 ft | 394 kts | 353° |
| 2026-05-07 18:08 | 34.46159 | -7.75726 | 17394 ft | 397 kts | 352° |
| 2026-05-07 18:08 | 34.48920 | -7.75921 | 17896 ft | 399 kts | 352° |
| 2026-05-07 18:09 | 34.51704 | -7.76118 | 18377 ft | 402 kts | 352° |
| 2026-05-07 18:09 | 34.54504 | -7.76316 | 18802 ft | 405 kts | 352° |
| 2026-05-07 18:09 | 34.57330 | -7.76515 | 19206 ft | 407 kts | 352° |
| 2026-05-07 18:09 | 34.60168 | -7.76714 | 19607 ft | 410 kts | 352° |
| 2026-05-07 18:10 | 34.63024 | -7.76912 | 20001 ft | 413 kts | 352° |
| 2026-05-07 18:10 | 34.65907 | -7.77113 | 20379 ft | 415 kts | 352° |
| 2026-05-07 18:10 | 34.68796 | -7.77318 | 20749 ft | 418 kts | 352° |
| 2026-05-07 18:10 | 34.71704 | -7.77524 | 20967 ft | 419 kts | 352° |
| 2026-05-07 18:11 | 34.74624 | -7.77728 | 21311 ft | 422 kts | 351° |
| 2026-05-07 18:11 | 34.77524 | -7.77946 | 21653 ft | 424 kts | 351° |
| 2026-05-07 18:11 | 34.80482 | -7.78187 | 22006 ft | 427 kts | 351° |
| 2026-05-07 18:11 | 34.83446 | -7.78439 | 22355 ft | 429 kts | 350° |
| 2026-05-07 18:12 | 34.86428 | -7.78698 | 22705 ft | 432 kts | 350° |
| 2026-05-07 18:12 | 34.89435 | -7.78963 | 23046 ft | 434 kts | 350° |
| 2026-05-07 18:12 | 34.92463 | -7.79228 | 23396 ft | 437 kts | 350° |
| 2026-05-07 18:12 | 34.95497 | -7.79486 | 23707 ft | 439 kts | 350° |
| 2026-05-07 18:13 | 34.98557 | -7.79742 | 24025 ft | 441 kts | 350° |
| 2026-05-07 18:13 | 35.01624 | -7.79996 | 24352 ft | 443 kts | 350° |
| 2026-05-07 18:13 | 35.04704 | -7.80253 | 24671 ft | 444 kts | 350° |
| 2026-05-07 18:13 | 35.07787 | -7.80508 | 24983 ft | 446 kts | 350° |
| 2026-05-07 18:14 | 35.10859 | -7.80760 | 25301 ft | 448 kts | 350° |
| 2026-05-07 18:14 | 35.13966 | -7.81017 | 25621 ft | 449 kts | 350° |
| 2026-05-07 18:14 | 35.17092 | -7.81277 | 25940 ft | 451 kts | 350° |
| 2026-05-07 18:14 | 35.20221 | -7.81540 | 26254 ft | 452 kts | 350° |
| 2026-05-07 18:15 | 35.23369 | -7.81804 | 26566 ft | 453 kts | 350° |
| 2026-05-07 18:15 | 35.26522 | -7.82072 | 26888 ft | 455 kts | 350° |
| 2026-05-07 18:15 | 35.29684 | -7.82342 | 27181 ft | 457 kts | 350° |
| 2026-05-07 18:15 | 35.32863 | -7.82616 | 27471 ft | 458 kts | 350° |
| 2026-05-07 18:16 | 35.36043 | -7.82888 | 27764 ft | 461 kts | 350° |
| 2026-05-07 18:16 | 35.39266 | -7.83159 | 27880 ft | 466 kts | 350° |
| 2026-05-07 18:16 | 35.42523 | -7.83433 | 28013 ft | 471 kts | 350° |
| 2026-05-07 18:16 | 35.45766 | -7.83716 | 28152 ft | 476 kts | 350° |
| 2026-05-07 18:17 | 35.49084 | -7.84016 | 28274 ft | 480 kts | 350° |
| 2026-05-07 18:17 | 35.52420 | -7.84322 | 28427 ft | 484 kts | 350° |
| 2026-05-07 18:17 | 35.55792 | -7.84635 | 28561 ft | 487 kts | 350° |
| 2026-05-07 18:17 | 35.59180 | -7.84950 | 28692 ft | 489 kts | 350° |
| 2026-05-07 18:18 | 35.62578 | -7.85262 | 28824 ft | 491 kts | 350° |
| 2026-05-07 18:18 | 35.65997 | -7.85569 | 28960 ft | 493 kts | 350° |
| 2026-05-07 18:18 | 35.69417 | -7.85874 | 29094 ft | 494 kts | 350° |
| 2026-05-07 18:18 | 35.72845 | -7.86209 | 29232 ft | 494 kts | 349° |
| 2026-05-07 18:19 | 35.76273 | -7.86615 | 29375 ft | 494 kts | 348° |
| 2026-05-07 18:19 | 35.79680 | -7.87074 | 29512 ft | 494 kts | 348° |
| 2026-05-07 18:19 | 35.83071 | -7.87559 | 30112 ft | 483 kts | 347° |
| 2026-05-07 18:19 | 35.86387 | -7.88033 | 30538 ft | 479 kts | 347° |
| 2026-05-07 18:20 | 35.89684 | -7.88498 | 30797 ft | 478 kts | 347° |
| 2026-05-07 18:20 | 35.92949 | -7.88951 | 30998 ft | 478 kts | 347° |
| 2026-05-07 18:20 | 35.96256 | -7.89399 | 31261 ft | 477 kts | 347° |
| 2026-05-07 18:20 | 35.99557 | -7.89837 | 31545 ft | 477 kts | 347° |
| 2026-05-07 18:21 | 36.02860 | -7.90273 | 31786 ft | 477 kts | 347° |
| 2026-05-07 18:21 | 36.06155 | -7.90709 | 32031 ft | 476 kts | 347° |
| 2026-05-07 18:21 | 36.09443 | -7.91145 | 32279 ft | 476 kts | 347° |
| 2026-05-07 18:21 | 36.12725 | -7.91581 | 32530 ft | 475 kts | 347° |
| 2026-05-07 18:22 | 36.16011 | -7.92020 | 32783 ft | 474 kts | 347° |
| 2026-05-07 18:22 | 36.18192 | -7.92312 | 32951 ft | 474 kts | 347° |
| 2026-05-07 18:22 | 36.22528 | -7.92894 | 33272 ft | 473 kts | 346° |
| 2026-05-07 18:22 | 36.25809 | -7.93334 | 33558 ft | 473 kts | 346° |
| 2026-05-07 18:23 | 36.29070 | -7.93771 | 33808 ft | 472 kts | 346° |
| 2026-05-07 18:23 | 36.32335 | -7.94211 | 34040 ft | 472 kts | 346° |
| 2026-05-07 18:23 | 36.35593 | -7.94654 | 34249 ft | 471 kts | 346° |
| 2026-05-07 18:23 | 36.38846 | -7.95096 | 34457 ft | 470 kts | 346° |
| 2026-05-07 18:24 | 36.42098 | -7.95536 | 34669 ft | 470 kts | 346° |
| 2026-05-07 18:24 | 36.45348 | -7.95976 | 34880 ft | 469 kts | 346° |
| 2026-05-07 18:24 | 36.48588 | -7.96416 | 35115 ft | 468 kts | 346° |
| 2026-05-07 18:24 | 36.51827 | -7.96856 | 35333 ft | 468 kts | 346° |
| 2026-05-07 18:25 | 36.55060 | -7.97296 | 35533 ft | 467 kts | 345° |
| 2026-05-07 18:25 | 36.58281 | -7.97734 | 35727 ft | 466 kts | 345° |
| 2026-05-07 18:25 | 36.61510 | -7.98171 | 35895 ft | 466 kts | 345° |
| 2026-05-07 18:26 | 36.67875 | -7.99030 | 35935 ft | 461 kts | 345° |
| 2026-05-07 18:26 | 36.74244 | -7.99892 | 35934 ft | 460 kts | 345° |
| 2026-05-07 18:27 | 36.80603 | -8.00761 | 35930 ft | 459 kts | 345° |
| 2026-05-07 18:27 | 36.86951 | -8.01637 | 35924 ft | 460 kts | 345° |
| 2026-05-07 18:28 | 36.93270 | -8.02498 | 35920 ft | 460 kts | 345° |
| 2026-05-07 18:28 | 36.99634 | -8.03364 | 35947 ft | 460 kts | 345° |
| 2026-05-07 18:29 | 37.05991 | -8.04227 | 35929 ft | 460 kts | 345° |
| 2026-05-07 18:29 | 37.12354 | -8.05107 | 35935 ft | 460 kts | 345° |
| 2026-05-07 18:30 | 37.18701 | -8.05996 | 35936 ft | 460 kts | 345° |
| 2026-05-07 18:30 | 37.25022 | -8.06868 | 35947 ft | 460 kts | 345° |
| 2026-05-07 18:31 | 37.31383 | -8.07739 | 35945 ft | 460 kts | 345° |
| 2026-05-07 18:31 | 37.37739 | -8.08611 | 35941 ft | 460 kts | 345° |
| 2026-05-07 18:32 | 37.44094 | -8.09499 | 35964 ft | 459 kts | 345° |
| 2026-05-07 18:32 | 37.50435 | -8.10388 | 35955 ft | 459 kts | 345° |
| 2026-05-07 18:33 | 37.56786 | -8.11273 | 35945 ft | 459 kts | 345° |
| 2026-05-07 18:33 | 37.63100 | -8.12145 | 35940 ft | 459 kts | 345° |
| 2026-05-07 18:34 | 37.69459 | -8.13026 | 35953 ft | 459 kts | 345° |
| 2026-05-07 18:34 | 37.75813 | -8.13919 | 35945 ft | 460 kts | 345° |
| 2026-05-07 18:35 | 37.82169 | -8.14811 | 35940 ft | 460 kts | 345° |
| 2026-05-07 18:35 | 37.88479 | -8.15691 | 35938 ft | 460 kts | 345° |
| 2026-05-07 18:36 | 37.94849 | -8.16587 | 35957 ft | 460 kts | 345° |
| 2026-05-07 18:36 | 38.01210 | -8.17483 | 35934 ft | 460 kts | 345° |
| 2026-05-07 18:37 | 38.07559 | -8.18376 | 35919 ft | 459 kts | 345° |
| 2026-05-07 18:37 | 38.13910 | -8.19275 | 35919 ft | 459 kts | 345° |
| 2026-05-07 18:38 | 38.20212 | -8.20169 | 35924 ft | 459 kts | 345° |
| 2026-05-07 18:38 | 38.26548 | -8.21070 | 35926 ft | 458 kts | 345° |
| 2026-05-07 18:39 | 38.32890 | -8.21973 | 35928 ft | 459 kts | 345° |
| 2026-05-07 18:39 | 38.39237 | -8.22871 | 35943 ft | 459 kts | 345° |
| 2026-05-07 18:40 | 38.45583 | -8.23774 | 35936 ft | 458 kts | 345° |
| 2026-05-07 18:40 | 38.51921 | -8.24684 | 35934 ft | 459 kts | 345° |
| 2026-05-07 18:41 | 38.58261 | -8.25597 | 35930 ft | 459 kts | 345° |
| 2026-05-07 18:41 | 38.64565 | -8.26499 | 35953 ft | 458 kts | 345° |
| 2026-05-07 18:42 | 38.70908 | -8.27400 | 35945 ft | 458 kts | 345° |
| 2026-05-07 18:42 | 38.77239 | -8.28302 | 35936 ft | 458 kts | 345° |
| 2026-05-07 18:43 | 38.83574 | -8.29216 | 35948 ft | 457 kts | 345° |
| 2026-05-07 18:43 | 38.89888 | -8.30135 | 35942 ft | 457 kts | 345° |
| 2026-05-07 18:44 | 38.96153 | -8.31046 | 35932 ft | 456 kts | 345° |
| 2026-05-07 18:44 | 39.02466 | -8.31954 | 35928 ft | 456 kts | 345° |
| 2026-05-07 18:45 | 39.08770 | -8.32870 | 35950 ft | 456 kts | 345° |
| 2026-05-07 18:45 | 39.15068 | -8.33789 | 35883 ft | 454 kts | 345° |
| 2026-05-07 18:45 | 39.18206 | -8.34242 | 35256 ft | 454 kts | 346° |
| 2026-05-07 18:46 | 39.21304 | -8.34692 | 34555 ft | 455 kts | 346° |
| 2026-05-07 18:46 | 39.24457 | -8.35152 | 33822 ft | 458 kts | 346° |
| 2026-05-07 18:46 | 39.27629 | -8.35616 | 33014 ft | 459 kts | 347° |
| 2026-05-07 18:46 | 39.30786 | -8.36077 | 32494 ft | 454 kts | 347° |
| 2026-05-07 18:47 | 39.33917 | -8.36528 | 31968 ft | 450 kts | 348° |
| 2026-05-07 18:47 | 39.37011 | -8.36974 | 31448 ft | 446 kts | 348° |
| 2026-05-07 18:47 | 39.40074 | -8.37421 | 30921 ft | 442 kts | 348° |
| 2026-05-07 18:47 | 39.43116 | -8.37868 | 30396 ft | 438 kts | 348° |
| 2026-05-07 18:48 | 39.46126 | -8.38311 | 29866 ft | 434 kts | 348° |
| 2026-05-07 18:48 | 39.49124 | -8.38752 | 29252 ft | 431 kts | 348° |
| 2026-05-07 18:48 | 39.52082 | -8.39188 | 28944 ft | 428 kts | 349° |
| 2026-05-07 18:49 | 39.57989 | -8.40062 | 28455 ft | 425 kts | 349° |
| 2026-05-07 18:49 | 39.60909 | -8.40494 | 27844 ft | 422 kts | 349° |
| 2026-05-07 18:49 | 39.63773 | -8.40919 | 27254 ft | 419 kts | 348° |
| 2026-05-07 18:49 | 39.66665 | -8.41348 | 26662 ft | 416 kts | 349° |
| 2026-05-07 18:50 | 39.69539 | -8.41770 | 26096 ft | 413 kts | 349° |
| 2026-05-07 18:50 | 39.72389 | -8.42187 | 25854 ft | 414 kts | 349° |
| 2026-05-07 18:50 | 39.75253 | -8.42612 | 25617 ft | 415 kts | 349° |
| 2026-05-07 18:50 | 39.78114 | -8.43039 | 25379 ft | 415 kts | 349° |
| 2026-05-07 18:51 | 39.80979 | -8.43466 | 25138 ft | 414 kts | 349° |
| 2026-05-07 18:51 | 39.83832 | -8.43888 | 24886 ft | 408 kts | 349° |
| 2026-05-07 18:51 | 39.86633 | -8.44300 | 24430 ft | 403 kts | 349° |
| 2026-05-07 18:51 | 39.89358 | -8.44699 | 23982 ft | 398 kts | 349° |
| 2026-05-07 18:52 | 39.92105 | -8.45103 | 23524 ft | 395 kts | 349° |
| 2026-05-07 18:52 | 39.94824 | -8.45509 | 23025 ft | 391 kts | 350° |
| 2026-05-07 18:52 | 39.97505 | -8.45910 | 22552 ft | 386 kts | 350° |
| 2026-05-07 18:52 | 40.00153 | -8.46307 | 22111 ft | 380 kts | 350° |
| 2026-05-07 18:53 | 40.02771 | -8.46699 | 21662 ft | 375 kts | 351° |
| 2026-05-07 18:53 | 40.05347 | -8.47086 | 21218 ft | 371 kts | 351° |
| 2026-05-07 18:53 | 40.07895 | -8.47469 | 20767 ft | 367 kts | 351° |
| 2026-05-07 18:53 | 40.10426 | -8.47850 | 20322 ft | 364 kts | 351° |
| 2026-05-07 18:54 | 40.12932 | -8.48225 | 19877 ft | 361 kts | 352° |
| 2026-05-07 18:54 | 40.15420 | -8.48596 | 19433 ft | 359 kts | 352° |
| 2026-05-07 18:54 | 40.17889 | -8.48964 | 18996 ft | 356 kts | 352° |
| 2026-05-07 18:54 | 40.20306 | -8.49334 | 18602 ft | 353 kts | 352° |
| 2026-05-07 18:55 | 40.22725 | -8.49717 | 18292 ft | 346 kts | 352° |
| 2026-05-07 18:55 | 40.25111 | -8.50102 | 17705 ft | 347 kts | 352° |
| 2026-05-07 18:55 | 40.27530 | -8.50492 | 17052 ft | 350 kts | 352° |
| 2026-05-07 18:55 | 40.29909 | -8.50873 | 16854 ft | 339 kts | 352° |
| 2026-05-07 18:56 | 40.32233 | -8.51245 | 16462 ft | 336 kts | 352° |
| 2026-05-07 18:56 | 40.34557 | -8.51620 | 16058 ft | 334 kts | 352° |
| 2026-05-07 18:56 | 40.36859 | -8.51989 | 15663 ft | 332 kts | 352° |
| 2026-05-07 18:56 | 40.39096 | -8.52346 | 15458 ft | 316 kts | 352° |
| 2026-05-07 18:57 | 40.41248 | -8.52691 | 15220 ft | 308 kts | 352° |
| 2026-05-07 18:57 | 40.43339 | -8.53026 | 14909 ft | 304 kts | 352° |
| 2026-05-07 18:57 | 40.45418 | -8.53360 | 14641 ft | 299 kts | 352° |
| 2026-05-07 18:57 | 40.47474 | -8.53690 | 14296 ft | 297 kts | 352° |
| 2026-05-07 18:58 | 40.49557 | -8.53995 | 13679 ft | 306 kts | 358° |
| 2026-05-07 18:58 | 40.51697 | -8.53611 | 12816 ft | 319 kts | 17° |
| 2026-05-07 18:58 | 40.53849 | -8.52722 | 12110 ft | 326 kts | 19° |
| 2026-05-07 18:58 | 40.55998 | -8.51787 | 11641 ft | 326 kts | 19° |
| 2026-05-07 18:59 | 40.58143 | -8.50854 | 11197 ft | 324 kts | 19° |
| 2026-05-07 18:59 | 40.60300 | -8.49918 | 10434 ft | 333 kts | 19° |
| 2026-05-07 18:59 | 40.62531 | -8.48969 | 9766 ft | 338 kts | 19° |
| 2026-05-07 18:59 | 40.64770 | -8.48021 | 9219 ft | 337 kts | 19° |
| 2026-05-07 19:00 | 40.66991 | -8.47072 | 8693 ft | 335 kts | 19° |
| 2026-05-07 19:00 | 40.69192 | -8.46119 | 8214 ft | 332 kts | 19° |
| 2026-05-07 19:00 | 40.71342 | -8.45180 | 8067 ft | 317 kts | 19° |
| 2026-05-07 19:00 | 40.73356 | -8.44299 | 7923 ft | 299 kts | 19° |
| 2026-05-07 19:01 | 40.75254 | -8.43467 | 7804 ft | 276 kts | 19° |
| 2026-05-07 19:01 | 40.77032 | -8.42688 | 7398 ft | 265 kts | 19° |
| 2026-05-07 19:01 | 40.78771 | -8.41918 | 6977 ft | 264 kts | 19° |
| 2026-05-07 19:01 | 40.80498 | -8.41140 | 6673 ft | 261 kts | 19° |
| 2026-05-07 19:02 | 40.82209 | -8.40353 | 6328 ft | 260 kts | 19° |
| 2026-05-07 19:02 | 40.83911 | -8.39565 | 6016 ft | 257 kts | 19° |
| 2026-05-07 19:02 | 40.85582 | -8.38789 | 5923 ft | 254 kts | 18° |
| 2026-05-07 19:02 | 40.87317 | -8.38418 | 5921 ft | 253 kts | 354° |
| 2026-05-07 19:03 | 40.88989 | -8.39034 | 5926 ft | 249 kts | 327° |
| 2026-05-07 19:03 | 40.90293 | -8.40484 | 5931 ft | 245 kts | 308° |
| 2026-05-07 19:03 | 40.91429 | -8.42125 | 5925 ft | 245 kts | 309° |
| 2026-05-07 19:03 | 40.92601 | -8.43810 | 5927 ft | 245 kts | 309° |
| 2026-05-07 19:04 | 40.93740 | -8.45444 | 5919 ft | 245 kts | 309° |
| 2026-05-07 19:04 | 40.94894 | -8.47099 | 5717 ft | 243 kts | 309° |
| 2026-05-07 19:04 | 40.96034 | -8.48734 | 5456 ft | 238 kts | 309° |
| 2026-05-07 19:04 | 40.97133 | -8.50308 | 5328 ft | 228 kts | 309° |
| 2026-05-07 19:05 | 40.98177 | -8.51807 | 5220 ft | 214 kts | 309° |
| 2026-05-07 19:05 | 40.99160 | -8.53220 | 5086 ft | 203 kts | 309° |
| 2026-05-07 19:05 | 41.00096 | -8.54566 | 4766 ft | 196 kts | 309° |
| 2026-05-07 19:05 | 41.01015 | -8.55891 | 4510 ft | 192 kts | 309° |
| 2026-05-07 19:06 | 41.01909 | -8.57178 | 4280 ft | 189 kts | 309° |
| 2026-05-07 19:06 | 41.03665 | -8.59708 | 3522 ft | 186 kts | 311° |
| 2026-05-07 19:06 | 41.04535 | -8.60965 | 3235 ft | 184 kts | 311° |
| 2026-05-07 19:07 | 41.05401 | -8.62186 | 3026 ft | 182 kts | 316° |
| 2026-05-07 19:07 | 41.06429 | -8.63118 | 2998 ft | 174 kts | 332° |
| 2026-05-07 19:07 | 41.07548 | -8.63618 | 3002 ft | 168 kts | 346° |
| 2026-05-07 19:07 | 41.08692 | -8.63906 | 3004 ft | 167 kts | 346° |
| 2026-05-07 19:08 | 41.09827 | -8.64202 | 3011 ft | 166 kts | 347° |
| 2026-05-07 19:08 | 41.10956 | -8.64500 | 3007 ft | 166 kts | 347° |
| 2026-05-07 19:08 | 41.12092 | -8.64791 | 2965 ft | 167 kts | 348° |
| 2026-05-07 19:08 | 41.13219 | -8.65051 | 2778 ft | 168 kts | 348° |
| 2026-05-07 19:09 | 41.14355 | -8.65324 | 2581 ft | 161 kts | 347° |
| 2026-05-07 19:09 | 41.15439 | -8.65607 | 2367 ft | 156 kts | 346° |
| 2026-05-07 19:09 | 41.16492 | -8.65893 | 2116 ft | 151 kts | 346° |
| 2026-05-07 19:09 | 41.17514 | -8.66175 | 1796 ft | 149 kts | 346° |
| 2026-05-07 19:10 | 41.18524 | -8.66455 | 1488 ft | 147 kts | 346° |
| 2026-05-07 19:10 | 41.19530 | -8.66708 | 1116 ft | 147 kts | 348° |
| 2026-05-07 19:10 | 41.20518 | -8.66962 | 823 ft | 143 kts | 347° |
| 2026-05-07 19:10 | 41.21484 | -8.67216 | 669 ft | 141 kts | 346° |
| 2026-05-07 19:11 | 41.22455 | -8.67487 | 450 ft | 142 kts | 345° |
| 2026-05-07 19:11 | 41.23420 | -8.67756 | 310 ft | 142 kts | 346° |
| 2026-05-07 19:11 | 41.24327 | -8.68003 | 248 ft | 120 kts | 347° |
| 2026-05-07 19:11 | 41.24941 | -8.68165 | 228 ft | 64 kts | 349° |
| 2026-05-07 19:12 | 41.25317 | -8.68257 | 214 ft | 53 kts | 348° |
| 2026-05-07 19:12 | 41.25569 | -8.68307 | 218 ft | 18 kts | 21° |
| 2026-05-07 19:12 | 41.25583 | -8.68287 | 214 ft | 0 kts | 57° |
| 2026-05-07 19:12 | 41.25597 | -8.68248 | 214 ft | 8 kts | 69° |
| 2026-05-07 19:13 | 41.25607 | -8.68196 | 217 ft | 5 kts | 79° |
| 2026-05-07 19:13 | 41.25608 | -8.68145 | 210 ft | 6 kts | 98° |
| 2026-05-07 19:13 | 41.25603 | -8.68127 | 217 ft | 0 kts | 113° |
| 2026-05-07 19:13 | 41.25601 | -8.68122 | 214 ft | 0 kts | 118° |
| 2026-05-07 19:14 | 41.25598 | -8.68116 | 212 ft | 2 kts | 125° |
| 2026-05-07 19:14 | 41.25595 | -8.68113 | 211 ft | 0 kts | 129° |
| 2026-05-07 19:16 | 41.25596 | -8.68113 | 211 ft | 0 kts | 129° |
| 2026-05-07 19:17 | 41.25595 | -8.68113 | 211 ft | 0 kts | 129° |
| 2026-05-07 19:17 | 41.25575 | -8.68098 | 208 ft | 6 kts | 156° |
| 2026-05-07 19:17 | 41.25536 | -8.68086 | 208 ft | 5 kts | 168° |
| 2026-05-07 19:17 | 41.25502 | -8.68077 | 208 ft | 4 kts | 169° |
| 2026-05-07 19:18 | 41.25473 | -8.68070 | 209 ft | 6 kts | 168° |
| 2026-05-07 19:18 | 41.25407 | -8.68052 | 212 ft | 10 kts | 168° |
| 2026-05-07 19:18 | 41.25331 | -8.68032 | 214 ft | 14 kts | 169° |
| 2026-05-07 19:18 | 41.25226 | -8.68005 | 213 ft | 14 kts | 169° |
| 2026-05-07 19:19 | 41.25142 | -8.67983 | 221 ft | 10 kts | 169° |
| 2026-05-07 19:19 | 41.25088 | -8.67969 | 222 ft | 7 kts | 169° |
| 2026-05-07 19:19 | 41.25038 | -8.67955 | 224 ft | 7 kts | 168° |
| 2026-05-07 19:19 | 41.24957 | -8.67934 | 227 ft | 16 kts | 168° |
| 2026-05-07 19:20 | 41.24861 | -8.67898 | 230 ft | 13 kts | 156° |
| 2026-05-07 19:20 | 41.24796 | -8.67851 | 232 ft | 9 kts | 152° |
| 2026-05-07 19:20 | 41.24699 | -8.67809 | 237 ft | 23 kts | 167° |
| 2026-05-07 19:20 | 41.24540 | -8.67768 | 241 ft | 22 kts | 169° |
| 2026-05-07 19:21 | 41.24402 | -8.67732 | 244 ft | 19 kts | 169° |
| 2026-05-07 19:21 | 41.24291 | -8.67681 | 244 ft | 14 kts | 140° |
| 2026-05-07 19:21 | 41.24248 | -8.67608 | 246 ft | 5 kts | 125° |
| 2026-05-07 19:21 | 41.24233 | -8.67579 | 247 ft | 4 kts | 125° |
| 2026-05-07 19:22 | 41.24207 | -8.67538 | 248 ft | 7 kts | 133° |
| 2026-05-07 19:22 | 41.24156 | -8.67479 | 249 ft | 10 kts | 145° |
| 2026-05-07 19:22 | 41.24064 | -8.67429 | 251 ft | 16 kts | 163° |
| 2026-05-07 19:22 | 41.23973 | -8.67436 | 254 ft | 11 kts | 208° |
| 2026-05-07 19:23 | 41.23915 | -8.67482 | 256 ft | 8 kts | 202° |
| 2026-05-07 19:23 | 41.23870 | -8.67487 | 257 ft | 5 kts | 165° |
| 2026-05-07 19:23 | 41.23842 | -8.67479 | 258 ft | 4 kts | 170° |
| 2026-05-07 19:23 | 41.23813 | -8.67473 | 258 ft | 4 kts | 171° |
| 2026-05-07 19:24 | 41.23786 | -8.67466 | 258 ft | 4 kts | 168° |
| 2026-05-07 19:24 | 41.23761 | -8.67453 | 258 ft | 6 kts | 152° |
| 2026-05-07 19:24 | 41.23723 | -8.67398 | 258 ft | 8 kts | 127° |
| 2026-05-07 19:24 | 41.23686 | -8.67352 | 258 ft | 3 kts | 150° |
| 2026-05-07 19:25 | 41.23674 | -8.67344 | 258 ft | 7 kts | 158° |
| 2026-05-07 19:25 | 41.23632 | -8.67327 | 259 ft | 0 kts | 153° |
| 2026-05-07 19:25 | 41.23618 | -8.67305 | 258 ft | 4 kts | 119° |
| 2026-05-07 19:25 | 41.23620 | -8.67265 | 258 ft | 4 kts | 66° |
| 2026-05-07 19:26 | 41.23625 | -8.67254 | 258 ft | 0 kts | 59° |